Time;durP1;ratioP1;P1;durP2;ratioP2;P2;SDS_P1;SDS_P2;PMS_P1;PMS_P2;Temp;Humidity;BMP_temperature;BMP_pressure;BME280_temperature;BME280_humidity;BME280_pressure;Samples;Min_cycle;Max_cycle;Signal;HPM_P1;HPM_P2
2023/10/30 00:00:22;;;;;;;6.00;1.45;;;15.70;66.50;;;;;;5014241;28;20092;-52
2023/10/30 00:02:48;;;;;;;5.18;1.17;;;15.70;66.60;;;;;;5013268;28;20037;-49
2023/10/30 00:05:16;;;;;;;5.03;1.25;;;15.70;66.60;;;;;;5010613;28;20050;-49
2023/10/30 00:07:43;;;;;;;6.60;1.58;;;15.60;66.70;;;;;;5012822;28;20053;-50
2023/10/30 00:10:09;;;;;;;3.15;0.80;;;15.60;66.70;;;;;;4995760;28;20092;-50
2023/10/30 00:12:36;;;;;;;3.88;1.48;;;15.60;66.80;;;;;;5010098;28;20057;-52
2023/10/30 00:15:03;;;;;;;4.85;1.20;;;15.60;66.90;;;;;;5011246;28;20092;-52
2023/10/30 00:17:30;;;;;;;6.97;1.50;;;15.60;66.90;;;;;;5014327;28;20038;-53
2023/10/30 00:20:00;;;;;;;6.03;1.20;;;15.60;66.90;;;;;;5012766;28;20045;-49
2023/10/30 00:22:26;;;;;;;3.97;1.10;;;15.60;67.00;;;;;;5009064;28;20045;-51
2023/10/30 00:24:53;;;;;;;5.95;1.23;;;15.60;67.10;;;;;;5027991;22;20073;-54
2023/10/30 00:27:20;;;;;;;5.80;1.05;;;15.60;67.20;;;;;;5007600;28;20508;-48
2023/10/30 00:29:47;;;;;;;5.93;1.27;;;15.60;67.30;;;;;;5011447;28;20594;-48
2023/10/30 00:32:15;;;;;;;5.28;1.52;;;15.60;67.40;;;;;;5012061;28;20128;-52
2023/10/30 00:34:42;;;;;;;4.70;1.27;;;15.60;67.40;;;;;;4987999;28;20046;-52
2023/10/30 00:37:09;;;;;;;5.10;1.42;;;15.60;67.50;;;;;;5006158;28;20045;-51
2023/10/30 00:39:37;;;;;;;7.60;1.45;;;15.60;67.60;;;;;;4993912;28;20499;-51
2023/10/30 00:42:04;;;;;;;6.18;2.00;;;15.60;67.60;;;;;;5005021;28;20045;-51
2023/10/30 00:44:31;;;;;;;4.57;1.10;;;15.60;67.70;;;;;;5005999;28;20049;-49
2023/10/30 00:46:58;;;;;;;6.28;1.67;;;15.60;67.80;;;;;;4993616;28;20041;-50
2023/10/30 00:49:24;;;;;;;2.95;1.23;;;15.60;67.90;;;;;;5009384;28;20038;-49
2023/10/30 00:51:52;;;;;;;3.85;1.00;;;15.60;67.90;;;;;;5010751;28;20038;-50
2023/10/30 00:54:18;;;;;;;5.40;1.17;;;15.60;67.90;;;;;;4993654;28;20038;-51
2023/10/30 00:56:45;;;;;;;4.75;1.63;;;15.60;67.90;;;;;;4989519;28;20129;-51
2023/10/30 00:59:14;;;;;;;5.57;1.27;;;15.60;67.90;;;;;;5011297;28;20048;-49
2023/10/30 01:01:41;;;;;;;6.88;1.75;;;15.60;67.90;;;;;;4994643;28;20046;-51
2023/10/30 01:04:08;;;;;;;7.32;1.48;;;15.60;67.80;;;;;;5008115;28;20049;-52
2023/10/30 01:06:35;;;;;;;9.32;1.65;;;15.60;67.80;;;;;;4994355;28;20455;-52
2023/10/30 01:09:02;;;;;;;5.50;1.40;;;15.60;67.80;;;;;;5003487;28;20217;-48
2023/10/30 01:11:31;;;;;;;3.25;1.48;;;15.60;68.40;;;;;;5009607;28;20069;-50
2023/10/30 01:13:58;;;;;;;4.65;1.10;;;15.60;67.70;;;;;;5008438;28;20120;-49
2023/10/30 01:16:25;;;;;;;2.78;1.35;;;15.70;67.80;;;;;;5012294;28;20065;-49
2023/10/30 01:18:52;;;;;;;4.22;1.60;;;15.60;67.70;;;;;;5010412;28;20073;-49
2023/10/30 01:21:20;;;;;;;4.75;1.15;;;15.70;67.70;;;;;;5009077;28;20125;-49
2023/10/30 01:23:47;;;;;;;2.05;1.20;;;15.60;67.60;;;;;;5008855;28;20426;-53
2023/10/30 01:26:16;;;;;;;10.27;2.30;;;15.70;67.60;;;;;;5005885;28;20073;-52
2023/10/30 01:28:43;;;;;;;3.22;1.05;;;15.70;67.60;;;;;;4993172;28;20046;-52
2023/10/30 01:31:10;;;;;;;6.18;1.77;;;15.60;67.60;;;;;;4994156;28;20096;-49
2023/10/30 01:33:36;;;;;;;6.57;1.25;;;15.70;67.50;;;;;;4985764;28;20043;-52
2023/10/30 01:36:06;;;;;;;7.70;1.58;;;15.60;67.40;;;;;;4986496;28;20591;-52
2023/10/30 01:38:33;;;;;;;5.40;1.15;;;15.70;67.40;;;;;;5011097;28;20045;-53
2023/10/30 01:41:02;;;;;;;2.58;1.08;;;15.70;67.40;;;;;;5011248;28;20080;-49
2023/10/30 01:43:32;;;;;;;3.00;1.20;;;15.70;67.40;;;;;;5005440;28;20519;-50
2023/10/30 01:45:59;;;;;;;4.20;1.20;;;15.70;67.40;;;;;;5009364;28;20149;-52
2023/10/30 01:48:29;;;;;;;6.05;1.42;;;15.70;67.30;;;;;;5010708;28;20147;-48
2023/10/30 01:50:57;;;;;;;4.22;1.00;;;15.70;67.30;;;;;;5007548;28;20049;-52
2023/10/30 01:53:25;;;;;;;7.85;1.38;;;15.70;67.30;;;;;;5010376;28;20638;-51
2023/10/30 01:55:55;;;;;;;3.20;1.20;;;15.70;67.30;;;;;;5003505;28;20086;-49
2023/10/30 01:58:25;;;;;;;4.28;1.08;;;15.70;67.40;;;;;;4992729;28;20041;-52
2023/10/30 02:00:53;;;;;;;3.85;1.50;;;15.60;67.30;;;;;;4992903;28;20104;-52
2023/10/30 02:03:20;;;;;;;5.75;1.30;;;15.60;67.30;;;;;;4992743;28;20054;-49
2023/10/30 02:05:47;;;;;;;5.30;1.60;;;15.60;67.30;;;;;;5005325;28;20048;-49
2023/10/30 02:08:15;;;;;;;6.57;1.02;;;15.60;67.30;;;;;;5002872;28;20046;-49
2023/10/30 02:10:44;;;;;;;8.05;1.67;;;15.60;67.30;;;;;;4993023;28;20069;-53
2023/10/30 02:13:11;;;;;;;5.75;1.98;;;15.60;67.40;;;;;;5000901;28;20034;-53
2023/10/30 02:15:38;;;;;;;5.70;1.77;;;15.60;67.30;;;;;;5007284;28;20065;-49
2023/10/30 02:18:05;;;;;;;2.97;1.00;;;15.60;67.20;;;;;;5010025;28;20058;-52
2023/10/30 02:20:35;;;;;;;3.33;0.98;;;15.60;67.20;;;;;;4992699;28;20115;-49
2023/10/30 02:23:02;;;;;;;2.97;1.13;;;15.60;67.30;;;;;;5006299;28;20104;-50
2023/10/30 02:25:31;;;;;;;2.92;1.10;;;15.60;67.30;;;;;;4987338;28;20141;-49
2023/10/30 02:27:58;;;;;;;3.78;1.10;;;15.60;67.30;;;;;;5009550;28;20055;-50
2023/10/30 02:30:27;;;;;;;5.35;1.20;;;15.60;67.20;;;;;;4992715;28;20038;-49
2023/10/30 02:32:54;;;;;;;2.33;1.00;;;15.60;67.30;;;;;;5010028;28;20500;-52
2023/10/30 02:35:23;;;;;;;5.57;1.00;;;15.60;67.30;;;;;;4984777;28;20042;-48
2023/10/30 02:37:52;;;;;;;4.20;1.10;;;15.60;67.40;;;;;;5008421;28;20038;-50
2023/10/30 02:40:19;;;;;;;4.05;1.48;;;15.60;67.40;;;;;;4992088;28;20467;-52
2023/10/30 02:42:50;;;;;;;3.53;0.98;;;15.60;67.40;;;;;;4991654;28;20080;-52
2023/10/30 02:45:17;;;;;;;6.75;2.45;;;15.60;67.50;;;;;;5007540;28;20038;-53
2023/10/30 02:47:44;;;;;;;5.78;1.30;;;15.60;67.50;;;;;;4992697;28;20076;-51
2023/10/30 02:50:12;;;;;;;6.20;1.23;;;15.50;67.50;;;;;;5006683;28;20034;-51
2023/10/30 02:52:38;;;;;;;5.28;1.40;;;15.50;67.60;;;;;;5009052;28;20042;-49
2023/10/30 02:55:06;;;;;;;2.90;1.13;;;15.50;67.60;;;;;;5007819;28;20129;-50
2023/10/30 02:57:32;;;;;;;3.22;1.38;;;15.50;67.70;;;;;;5009446;28;20065;-48
2023/10/30 02:59:59;;;;;;;3.30;1.20;;;15.50;67.70;;;;;;4991418;28;20041;-50
2023/10/30 03:02:26;;;;;;;3.08;1.17;;;15.50;67.80;;;;;;5009266;28;20061;-51
2023/10/30 03:04:53;;;;;;;6.13;1.85;;;15.40;67.70;;;;;;5003370;28;20046;-48
2023/10/30 03:07:19;;;;;;;3.17;0.77;;;15.50;67.80;;;;;;5009891;28;20124;-51
2023/10/30 03:09:46;;;;;;;6.40;1.35;;;15.40;67.80;;;;;;5009250;28;20725;-52
2023/10/30 03:12:13;;;;;;;8.82;1.67;;;15.40;67.80;;;;;;4999278;28;20045;-51
2023/10/30 03:14:40;;;;;;;7.20;1.17;;;15.40;67.90;;;;;;5008795;28;20033;-51
2023/10/30 03:17:07;;;;;;;6.38;2.15;;;15.40;67.90;;;;;;5010207;28;20042;-49
2023/10/30 03:19:34;;;;;;;4.70;1.77;;;15.40;68.00;;;;;;5009896;28;20473;-48
2023/10/30 03:22:01;;;;;;;3.78;1.38;;;15.40;68.00;;;;;;4989346;28;20143;-52
2023/10/30 03:24:29;;;;;;;4.68;1.33;;;15.40;68.10;;;;;;4990682;28;20050;-53
2023/10/30 03:26:56;;;;;;;2.75;0.77;;;15.40;68.10;;;;;;4986812;28;20042;-50
2023/10/30 03:29:24;;;;;;;7.40;1.20;;;15.40;68.10;;;;;;4991089;28;20577;-51
2023/10/30 03:31:54;;;;;;;7.00;1.23;;;15.40;68.20;;;;;;5008799;28;20527;-51
2023/10/30 03:34:22;;;;;;;6.60;1.08;;;15.40;68.20;;;;;;5006302;28;20105;-51
2023/10/30 03:36:49;;;;;;;5.35;1.20;;;15.30;68.20;;;;;;5009000;28;20670;-48
2023/10/30 03:39:18;;;;;;;6.55;1.67;;;15.30;68.20;;;;;;5002401;28;20074;-52
2023/10/30 03:41:46;;;;;;;5.05;1.90;;;15.30;68.20;;;;;;5009144;28;20516;-50
2023/10/30 03:44:13;;;;;;;7.68;1.30;;;15.30;68.20;;;;;;4989774;28;20050;-51
2023/10/30 03:46:42;;;;;;;3.92;1.38;;;15.30;68.30;;;;;;5006916;28;20048;-51
2023/10/30 03:49:09;;;;;;;5.70;1.65;;;15.30;68.40;;;;;;5005741;28;20101;-51
2023/10/30 03:51:36;;;;;;;7.15;1.55;;;15.20;68.30;;;;;;5008680;28;20065;-50
2023/10/30 03:54:03;;;;;;;5.15;1.60;;;15.30;68.40;;;;;;5007334;28;20050;-48
2023/10/30 03:56:31;;;;;;;4.80;1.38;;;15.30;68.40;;;;;;5005198;28;20618;-52
2023/10/30 03:58:59;;;;;;;8.35;1.48;;;15.20;68.40;;;;;;5007634;28;20045;-52
2023/10/30 04:01:26;;;;;;;8.05;1.75;;;15.30;68.40;;;;;;5008217;28;20072;-49
2023/10/30 04:03:53;;;;;;;9.55;1.60;;;15.20;68.40;;;;;;5006903;28;20726;-53
2023/10/30 04:06:20;;;;;;;4.47;1.88;;;15.20;68.40;;;;;;5004939;28;20511;-52
2023/10/30 04:08:49;;;;;;;4.05;1.85;;;15.20;68.40;;;;;;5008782;28;20088;-52
2023/10/30 04:11:19;;;;;;;3.83;1.63;;;15.20;68.40;;;;;;5006560;28;20103;-48
2023/10/30 04:13:46;;;;;;;6.30;1.10;;;15.20;68.40;;;;;;5006868;28;20045;-49
2023/10/30 04:16:15;;;;;;;3.45;1.30;;;15.20;68.50;;;;;;5008685;28;20046;-51
2023/10/30 04:18:42;;;;;;;4.97;1.10;;;15.20;68.50;;;;;;5008397;28;20065;-53
2023/10/30 04:21:11;;;;;;;7.05;1.10;;;15.20;68.50;;;;;;5004510;28;20701;-52
2023/10/30 04:23:40;;;;;;;3.60;0.93;;;15.20;68.50;;;;;;5009030;28;20503;-52
2023/10/30 04:26:07;;;;;;;2.35;1.08;;;15.20;68.50;;;;;;5005678;28;20129;-49
2023/10/30 04:28:33;;;;;;;5.35;1.42;;;15.20;68.50;;;;;;5008116;28;20073;-49
2023/10/30 04:31:06;;;;;;;3.65;1.15;;;15.10;68.50;;;;;;5008620;28;20130;-49
2023/10/30 04:33:33;;;;;;;5.40;1.77;;;15.20;68.50;;;;;;5008557;28;20759;-50
2023/10/30 04:36:03;;;;;;;4.85;1.33;;;15.10;68.50;;;;;;5005457;28;20046;-52
2023/10/30 04:38:31;;;;;;;3.22;1.08;;;15.10;68.50;;;;;;5008349;28;20112;-48
2023/10/30 04:41:04;;;;;;;6.38;1.50;;;15.10;68.60;;;;;;5008927;28;20042;-51
2023/10/30 04:43:34;;;;;;;3.88;1.50;;;15.10;68.60;;;;;;5008771;28;20054;-48
2023/10/30 04:46:01;;;;;;;4.88;1.38;;;15.10;68.60;;;;;;5005590;28;20473;-53
2023/10/30 04:48:30;;;;;;;5.18;1.40;;;15.10;68.60;;;;;;5011863;28;20056;-50
2023/10/30 04:50:57;;;;;;;1.60;0.93;;;15.10;68.60;;;;;;5013109;28;20104;-48
2023/10/30 04:53:24;;;;;;;4.07;1.35;;;15.00;68.60;;;;;;5010053;28;20276;-51
2023/10/30 04:55:51;;;;;;;6.47;1.50;;;15.00;68.60;;;;;;5009882;28;20042;-49
2023/10/30 04:58:18;;;;;;;4.80;1.08;;;15.00;68.70;;;;;;5010364;28;20113;-50
2023/10/30 05:00:45;;;;;;;3.33;0.95;;;15.00;68.70;;;;;;5011234;28;20488;-52
2023/10/30 05:03:14;;;;;;;6.97;1.60;;;15.00;68.90;;;;;;5011399;28;20048;-48
2023/10/30 05:05:41;;;;;;;4.07;1.30;;;15.00;68.90;;;;;;5010430;28;20488;-50
2023/10/30 05:08:10;;;;;;;4.38;1.35;;;14.90;68.90;;;;;;4993916;28;20515;-50
2023/10/30 05:10:36;;;;;;;4.60;1.83;;;14.90;68.90;;;;;;5012170;28;20117;-48
2023/10/30 05:13:03;;;;;;;5.32;1.52;;;14.90;69.00;;;;;;5008348;28;20096;-49
2023/10/30 05:15:30;;;;;;;4.90;1.55;;;14.90;69.00;;;;;;5012566;28;20038;-51
2023/10/30 05:17:56;;;;;;;5.47;1.70;;;14.90;69.10;;;;;;5011167;28;20034;-49
2023/10/30 05:20:23;;;;;;;4.90;1.65;;;14.80;69.10;;;;;;5006087;28;21024;-49
2023/10/30 05:22:52;;;;;;;5.55;1.17;;;14.80;69.10;;;;;;5006217;28;20066;-51
2023/10/30 05:25:20;;;;;;;4.32;1.30;;;14.80;69.20;;;;;;5006858;28;20099;-51
2023/10/30 05:28:01;;;;;;;;;;;14.80;69.20;;;;;;5009436;28;20640;-51
2023/10/30 05:30:29;;;;;;;3.60;1.45;;;14.80;69.20;;;;;;5010661;28;19926;-50
2023/10/30 05:32:56;;;;;;;4.15;1.25;;;14.80;68.90;;;;;;5008087;28;20042;-49
2023/10/30 05:35:23;;;;;;;6.68;2.00;;;14.70;69.00;;;;;;5008676;28;20046;-52
2023/10/30 05:37:50;;;;;;;6.43;1.58;;;14.60;69.00;;;;;;5009421;28;20060;-48
2023/10/30 05:40:17;;;;;;;5.80;1.20;;;14.60;69.20;;;;;;5010139;28;20061;-52
2023/10/30 05:42:44;;;;;;;2.53;1.00;;;14.50;69.20;;;;;;5008032;28;20130;-48
2023/10/30 05:45:10;;;;;;;6.05;1.77;;;14.50;69.30;;;;;;5010254;28;20109;-49
2023/10/30 05:47:37;;;;;;;2.53;1.45;;;14.50;69.30;;;;;;4991706;28;20120;-52
2023/10/30 05:50:05;;;;;;;5.57;1.70;;;14.40;69.40;;;;;;5011223;28;20385;-51
2023/10/30 05:52:32;;;;;;;4.30;1.20;;;14.40;69.50;;;;;;5007473;28;20046;-50
2023/10/30 05:54:58;;;;;;;4.05;1.70;;;14.30;69.60;;;;;;5009714;28;20116;-53
2023/10/30 05:57:25;;;;;;;6.75;2.13;;;14.30;69.70;;;;;;5010037;28;20385;-50
2023/10/30 05:59:52;;;;;;;4.15;1.17;;;14.20;69.70;;;;;;5010108;28;20041;-50
2023/10/30 06:02:18;;;;;;;7.22;1.63;;;14.20;69.80;;;;;;5009401;28;20528;-49
2023/10/30 06:04:46;;;;;;;4.88;1.55;;;14.20;69.90;;;;;;5009563;28;20046;-52
2023/10/30 06:07:13;;;;;;;3.50;1.92;;;14.10;69.90;;;;;;5010377;28;20045;-48
2023/10/30 06:09:41;;;;;;;8.32;1.83;;;14.10;70.00;;;;;;5009698;28;20045;-53
2023/10/30 06:12:08;;;;;;;7.10;1.63;;;14.00;70.10;;;;;;5006962;28;20405;-50
2023/10/30 06:14:35;;;;;;;4.28;0.98;;;14.00;70.20;;;;;;5011443;28;20038;-52
2023/10/30 06:17:02;;;;;;;5.28;1.30;;;14.00;70.30;;;;;;5008968;28;20065;-52
2023/10/30 06:19:29;;;;;;;5.72;1.60;;;14.00;70.40;;;;;;5008532;28;20041;-52
2023/10/30 06:21:55;;;;;;;8.93;2.03;;;13.90;70.40;;;;;;5007362;28;20045;-50
2023/10/30 06:24:22;;;;;;;6.88;1.77;;;13.90;70.60;;;;;;5007392;28;20056;-51
2023/10/30 06:26:49;;;;;;;6.60;1.65;;;13.90;70.60;;;;;;5005708;28;20065;-52
2023/10/30 06:29:15;;;;;;;5.03;1.50;;;13.90;70.70;;;;;;4990826;28;20583;-53
2023/10/30 06:31:42;;;;;;;5.30;2.03;;;13.80;70.80;;;;;;5009698;28;20041;-49
2023/10/30 06:34:09;;;;;;;4.10;1.52;;;13.80;70.80;;;;;;5007393;28;20042;-52
2023/10/30 06:36:36;;;;;;;5.30;1.73;;;13.90;70.80;;;;;;5009407;28;20507;-52
2023/10/30 06:39:04;;;;;;;4.70;1.02;;;13.80;70.80;;;;;;5004975;28;20041;-52
2023/10/30 06:41:31;;;;;;;6.78;1.55;;;13.80;70.80;;;;;;5009045;28;20038;-53
2023/10/30 06:43:57;;;;;;;3.22;1.00;;;13.80;70.70;;;;;;5006185;28;20116;-52
2023/10/30 06:46:24;;;;;;;4.55;1.30;;;13.70;70.60;;;;;;5008512;28;20049;-52
2023/10/30 06:48:51;;;;;;;6.25;1.80;;;13.80;70.50;;;;;;5009097;28;20054;-53
2023/10/30 06:51:18;;;;;;;5.78;1.80;;;13.70;70.40;;;;;;5009431;28;20139;-51
2023/10/30 06:53:44;;;;;;;5.85;1.65;;;13.70;70.50;;;;;;5006926;28;20046;-51
2023/10/30 06:56:11;;;;;;;3.20;1.40;;;13.70;70.70;;;;;;5005661;28;20124;-53
2023/10/30 06:58:38;;;;;;;4.35;1.55;;;13.70;70.80;;;;;;5008595;28;20048;-52
2023/10/30 07:01:05;;;;;;;5.10;1.65;;;13.70;70.90;;;;;;5009073;28;20124;-50
2023/10/30 07:03:35;;;;;;;6.65;1.98;;;13.60;71.00;;;;;;5007318;28;20524;-52
2023/10/30 07:06:02;;;;;;;8.38;1.55;;;13.60;71.00;;;;;;5006440;28;20045;-53
2023/10/30 07:08:29;;;;;;;4.32;1.88;;;13.60;71.10;;;;;;5007552;28;20057;-50
2023/10/30 07:10:55;;;;;;;5.60;1.50;;;13.50;71.00;;;;;;5007173;28;20117;-51
2023/10/30 07:13:23;;;;;;;5.57;1.65;;;13.50;71.00;;;;;;5006526;28;20057;-52
2023/10/30 07:15:50;;;;;;;3.95;1.52;;;13.50;71.20;;;;;;5010400;28;20113;-52
2023/10/30 07:18:17;;;;;;;5.22;1.35;;;13.50;71.30;;;;;;5005002;28;20050;-52
2023/10/30 07:20:44;;;;;;;4.93;1.45;;;13.50;71.40;;;;;;5008854;28;20038;-50
2023/10/30 07:23:10;;;;;;;1.83;0.93;;;13.50;71.50;;;;;;5009446;28;20042;-54
2023/10/30 07:25:37;;;;;;;5.03;1.65;;;13.50;71.60;;;;;;5005889;28;20403;-54
2023/10/30 07:28:06;;;;;;;2.47;1.23;;;13.60;71.80;;;;;;5004943;28;20124;-50
2023/10/30 07:30:33;;;;;;;5.22;1.52;;;13.60;72.00;;;;;;5009754;28;20045;-50
2023/10/30 07:33:00;;;;;;;2.20;1.55;;;13.60;72.00;;;;;;5008697;28;20057;-48
2023/10/30 07:35:27;;;;;;;5.07;1.60;;;13.60;72.10;;;;;;5009938;28;20068;-50
2023/10/30 07:37:53;;;;;;;3.97;1.58;;;13.70;72.10;;;;;;5007897;28;20440;-54
2023/10/30 07:40:23;;;;;;;4.30;1.48;;;13.70;72.10;;;;;;5007069;28;20065;-51
2023/10/30 07:42:50;;;;;;;5.18;2.28;;;13.80;72.00;;;;;;4991853;28;20038;-51
2023/10/30 07:45:16;;;;;;;3.22;1.35;;;13.80;71.90;;;;;;5007297;28;20045;-52
2023/10/30 07:47:43;;;;;;;6.55;2.40;;;13.80;71.90;;;;;;4991229;28;20657;-49
2023/10/30 07:50:11;;;;;;;9.30;1.60;;;13.80;71.90;;;;;;5008964;28;20054;-52
2023/10/30 07:52:37;;;;;;;6.00;1.73;;;13.90;72.00;;;;;;5007184;28;20061;-48
2023/10/30 07:55:08;;;;;;;5.28;2.28;;;13.90;72.00;;;;;;5005206;28;20054;-53
2023/10/30 07:57:37;;;;;;;4.30;1.40;;;13.90;72.10;;;;;;5006434;28;20068;-49
2023/10/30 08:00:05;;;;;;;3.13;1.58;;;14.00;72.10;;;;;;5003991;28;20045;-51
2023/10/30 08:02:38;;;;;;;6.05;1.33;;;14.00;72.20;;;;;;5012080;28;20502;-53
2023/10/30 08:05:06;;;;;;;7.75;2.10;;;14.00;72.20;;;;;;4988989;28;20504;-49
2023/10/30 08:07:35;;;;;;;2.63;1.27;;;14.10;72.30;;;;;;5008376;28;20407;-51
2023/10/30 08:10:03;;;;;;;4.60;1.65;;;14.20;72.40;;;;;;5007635;28;20073;-52
2023/10/30 08:12:29;;;;;;;7.00;1.95;;;14.20;72.50;;;;;;5008852;28;20074;-53
2023/10/30 08:14:56;;;;;;;7.18;1.98;;;14.20;72.60;;;;;;5007469;28;20069;-52
2023/10/30 08:17:22;;;;;;;4.50;1.65;;;14.30;72.80;;;;;;4991360;28;20378;-48
2023/10/30 08:19:49;;;;;;;5.40;1.55;;;14.40;72.90;;;;;;5009103;28;20083;-54
2023/10/30 08:22:16;;;;;;;4.97;1.50;;;14.50;73.00;;;;;;5009239;28;20043;-52
2023/10/30 08:24:42;;;;;;;7.50;2.05;;;14.50;73.00;;;;;;5011478;28;20436;-51
2023/10/30 08:27:09;;;;;;;6.38;1.77;;;14.70;73.10;;;;;;5012163;28;20770;-50
2023/10/30 08:29:36;;;;;;;3.60;1.90;;;14.70;73.00;;;;;;5011843;28;20054;-51
2023/10/30 08:32:03;;;;;;;9.02;2.05;;;14.90;72.90;;;;;;5007105;28;20050;-50
2023/10/30 08:34:30;;;;;;;2.35;1.33;;;15.00;72.80;;;;;;5012327;28;20124;-52
2023/10/30 08:36:56;;;;;;;8.05;2.08;;;15.10;72.70;;;;;;5011628;28;20041;-52
2023/10/30 08:39:23;;;;;;;4.95;2.13;;;15.10;72.50;;;;;;5013144;28;20041;-52
2023/10/30 08:41:50;;;;;;;8.85;1.75;;;15.30;72.50;;;;;;5012109;28;20057;-53
2023/10/30 08:44:16;;;;;;;3.58;1.73;;;15.30;72.20;;;;;;5009602;28;20046;-51
2023/10/30 08:46:43;;;;;;;3.63;1.42;;;15.40;72.10;;;;;;5011758;28;20121;-53
2023/10/30 08:49:10;;;;;;;20.88;3.17;;;15.50;72.10;;;;;;5011140;28;20440;-52
2023/10/30 08:51:40;;;;;;;9.48;2.20;;;15.60;72.00;;;;;;5010677;28;20056;-52
2023/10/30 08:54:23;;;;;;;4.88;1.35;;;15.70;71.80;;;;;;5011546;28;20559;-50
2023/10/30 08:56:52;;;;;;;4.43;1.60;;;15.80;71.60;;;;;;5008918;28;20404;-52
2023/10/30 08:59:30;;;;;;;3.67;1.38;;;15.80;72.00;;;;;;5008498;28;20096;-52
2023/10/30 09:01:57;;;;;;;4.30;1.42;;;15.90;71.30;;;;;;5010337;28;20124;-53
2023/10/30 09:04:27;;;;;;;6.68;1.40;;;15.90;71.10;;;;;;5009350;28;20069;-49
2023/10/30 09:06:54;;;;;;;4.22;1.65;;;16.00;70.90;;;;;;5010812;28;20076;-51
2023/10/30 09:09:21;;;;;;;6.38;1.80;;;16.00;70.80;;;;;;5011483;28;20042;-53
2023/10/30 09:11:47;;;;;;;4.97;1.67;;;16.10;70.70;;;;;;5010071;28;20049;-52
2023/10/30 09:14:14;;;;;;;7.15;1.85;;;16.10;70.60;;;;;;5007263;28;20093;-49
2023/10/30 09:16:41;;;;;;;7.03;1.77;;;16.20;70.60;;;;;;5007967;28;20038;-53
2023/10/30 09:19:07;;;;;;;4.38;1.38;;;16.30;70.50;;;;;;5009997;28;20038;-49
2023/10/30 09:21:34;;;;;;;4.40;1.85;;;16.40;70.40;;;;;;5009078;28;20046;-52
2023/10/30 09:24:02;;;;;;;6.88;1.60;;;16.40;70.30;;;;;;5007573;28;20141;-54
2023/10/30 09:26:29;;;;;;;5.10;1.73;;;16.40;70.30;;;;;;5004180;28;20074;-48
2023/10/30 09:28:56;;;;;;;3.00;1.20;;;16.50;70.30;;;;;;5011251;28;20038;-51
2023/10/30 09:31:23;;;;;;;4.50;1.20;;;16.50;70.00;;;;;;5009694;28;20061;-50
2023/10/30 09:33:49;;;;;;;3.05;1.58;;;16.60;70.00;;;;;;5009089;28;20052;-50
2023/10/30 09:36:16;;;;;;;10.48;1.95;;;16.70;69.80;;;;;;5006955;28;20053;-51
2023/10/30 09:38:43;;;;;;;4.43;1.60;;;16.70;69.80;;;;;;5009782;28;20042;-52
2023/10/30 09:41:12;;;;;;;7.20;2.65;;;16.70;69.70;;;;;;5009819;28;20046;-53
2023/10/30 09:43:39;;;;;;;5.35;1.60;;;16.80;69.60;;;;;;5005742;28;20320;-52
2023/10/30 09:46:06;;;;;;;3.65;1.40;;;16.80;69.50;;;;;;5010036;28;20074;-52
2023/10/30 09:48:36;;;;;;;5.25;1.50;;;16.90;69.50;;;;;;5009880;28;20436;-50
2023/10/30 09:51:06;;;;;;;8.85;3.05;;;16.90;69.50;;;;;;5002034;28;20081;-48
2023/10/30 09:53:35;;;;;;;6.35;1.77;;;16.90;69.50;;;;;;5009239;28;20101;-51
2023/10/30 09:56:03;;;;;;;8.23;1.60;;;17.00;69.60;;;;;;5004616;28;20125;-51
2023/10/30 09:58:31;;;;;;;6.18;1.50;;;17.10;69.50;;;;;;5010265;28;20138;-53
2023/10/30 10:00:59;;;;;;;5.30;1.70;;;17.10;69.50;;;;;;5009741;28;20045;-52
2023/10/30 10:03:26;;;;;;;5.70;1.73;;;17.20;69.30;;;;;;5010756;28;20434;-52
2023/10/30 10:05:54;;;;;;;5.10;1.23;;;17.30;69.20;;;;;;5004129;28;20044;-53
2023/10/30 10:08:21;;;;;;;3.10;1.15;;;17.30;69.00;;;;;;5009564;28;20107;-53
2023/10/30 10:10:59;;;;;;;7.97;1.73;;;17.40;68.70;;;;;;5009447;28;20073;-53
2023/10/30 10:13:28;;;;;;;3.65;1.63;;;17.50;68.30;;;;;;5007086;28;21133;-54
2023/10/30 10:15:55;;;;;;;3.35;1.70;;;17.60;68.40;;;;;;5009910;28;20058;-52
2023/10/30 10:18:24;;;;;;;3.40;1.02;;;17.60;68.20;;;;;;5009475;28;20056;-52
2023/10/30 10:21:02;;;;;;;6.10;2.08;;;17.60;67.80;;;;;;5009030;28;20060;-53
2023/10/30 10:23:31;;;;;;;3.13;1.63;;;17.70;67.70;;;;;;5006982;28;20092;-52
2023/10/30 10:26:04;;;;;;;4.25;1.52;;;17.70;67.80;;;;;;5003522;28;20107;-52
2023/10/30 10:28:32;;;;;;;3.55;1.35;;;17.80;67.80;;;;;;5009207;28;20049;-52
2023/10/30 10:31:02;;;;;;;5.60;2.17;;;17.80;67.80;;;;;;5008290;28;20149;-52
2023/10/30 10:33:33;;;;;;;7.35;1.95;;;17.80;67.60;;;;;;4991398;28;20721;-53
2023/10/30 10:36:04;;;;;;;;;;;17.90;67.70;;;;;;5005377;28;20041;-48
2023/10/30 10:38:32;;;;;;;4.32;1.98;;;18.00;67.80;;;;;;5009441;28;19945;-49
2023/10/30 10:41:00;;;;;;;5.15;1.80;;;18.00;67.50;;;;;;5008632;28;20046;-52
2023/10/30 10:43:28;;;;;;;5.32;2.15;;;18.00;67.50;;;;;;5003674;28;20078;-52
2023/10/30 10:45:57;;;;;;;4.03;1.85;;;18.00;67.30;;;;;;5008122;28;20769;-52
2023/10/30 10:48:27;;;;;;;6.07;2.22;;;18.10;67.30;;;;;;5009344;28;20045;-53
2023/10/30 10:50:56;;;;;;;5.13;1.50;;;18.10;67.20;;;;;;5006610;28;20054;-52
2023/10/30 10:53:26;;;;;;;5.53;1.50;;;18.10;67.00;;;;;;5004776;28;20062;-52
2023/10/30 10:55:58;;;;;;;4.03;2.00;;;18.10;67.00;;;;;;5002142;28;20080;-52
2023/10/30 10:59:00;;;;;;;3.80;1.63;;;18.20;67.20;;;;;;5009138;28;20092;-53
2023/10/30 11:01:32;;;;;;;4.88;1.40;;;18.20;66.80;;;;;;5000538;28;20141;-52
2023/10/30 11:03:58;;;;;;;2.72;1.30;;;18.30;67.00;;;;;;5004903;28;20129;-51
2023/10/30 11:06:37;;;;;;;4.20;1.67;;;18.30;66.80;;;;;;5008048;28;20096;-49
2023/10/30 11:09:14;;;;;;;4.47;1.55;;;18.30;66.50;;;;;;5009683;28;20547;-52
2023/10/30 11:11:59;;;;;;;3.85;1.70;;;18.30;66.50;;;;;;5006903;28;20037;-53
2023/10/30 11:14:25;;;;;;;4.78;1.30;;;18.30;66.80;;;;;;5007743;28;20124;-52
2023/10/30 11:17:03;;;;;;;2.30;1.38;;;18.30;66.90;;;;;;5005060;28;20550;-54
2023/10/30 11:19:31;;;;;;;3.22;1.20;;;18.30;66.50;;;;;;5007002;28;20117;-53
2023/10/30 11:21:59;;;;;;;3.33;1.40;;;18.30;66.90;;;;;;5007533;28;20100;-54
2023/10/30 11:24:43;;;;;;;5.93;1.77;;;18.30;67.10;;;;;;5007502;28;20551;-53
2023/10/30 11:27:25;;;;;;;5.82;1.77;;;18.30;67.10;;;;;;5004522;28;20069;-53
2023/10/30 11:29:54;;;;;;;3.47;2.15;;;18.30;66.80;;;;;;5007390;28;20045;-53
2023/10/30 11:32:23;;;;;;;6.07;2.50;;;18.30;66.90;;;;;;5005405;28;20659;-52
2023/10/30 11:34:50;;;;;;;3.22;1.90;;;18.30;66.80;;;;;;5007285;28;20053;-52
2023/10/30 11:37:21;;;;;;;5.20;2.38;;;18.40;67.40;;;;;;5007314;28;20582;-53
2023/10/30 11:39:51;;;;;;;12.23;2.92;;;18.40;66.60;;;;;;5002192;28;20065;-52
2023/10/30 11:42:24;;;;;;;6.50;2.50;;;18.40;66.60;;;;;;5005870;28;20412;-52
2023/10/30 11:44:52;;;;;;;5.72;1.70;;;18.40;66.20;;;;;;5005086;28;20124;-48
2023/10/30 11:47:23;;;;;;;3.65;1.10;;;18.40;66.20;;;;;;5007756;28;20416;-50
2023/10/30 11:49:55;;;;;;;2.05;1.13;;;18.50;66.20;;;;;;5007766;28;20461;-51
2023/10/30 11:52:23;;;;;;;3.78;1.52;;;18.50;66.30;;;;;;5007164;28;20054;-52
2023/10/30 11:54:49;;;;;;;3.47;1.27;;;18.50;66.20;;;;;;5006798;28;20048;-52
2023/10/30 11:57:17;;;;;;;4.72;1.50;;;18.50;66.20;;;;;;5011076;28;20076;-51
2023/10/30 11:59:44;;;;;;;2.55;1.27;;;18.60;66.40;;;;;;5011461;28;20676;-53
2023/10/30 12:02:10;;;;;;;4.00;1.10;;;18.60;65.90;;;;;;5010956;28;20616;-52
2023/10/30 12:04:37;;;;;;;3.35;1.05;;;18.60;65.80;;;;;;5007916;28;20096;-52
2023/10/30 12:07:05;;;;;;;3.83;1.15;;;18.60;65.20;;;;;;5010730;28;20442;-49
2023/10/30 12:09:31;;;;;;;4.57;1.42;;;18.60;65.30;;;;;;5012050;28;20511;-49
2023/10/30 12:11:58;;;;;;;1.75;0.70;;;18.60;65.30;;;;;;5010988;28;20049;-50
2023/10/30 12:14:26;;;;;;;1.92;0.90;;;18.60;65.30;;;;;;5008829;28;20124;-52
2023/10/30 12:16:53;;;;;;;3.35;1.13;;;18.50;65.40;;;;;;5009423;28;20048;-52
2023/10/30 12:19:21;;;;;;;1.73;0.90;;;18.50;65.50;;;;;;5011141;28;20045;-54
2023/10/30 12:21:49;;;;;;;2.80;0.95;;;18.50;65.50;;;;;;5009927;28;20046;-52
2023/10/30 12:24:20;;;;;;;3.92;1.45;;;18.40;65.60;;;;;;5010723;28;20037;-54
2023/10/30 12:26:47;;;;;;;2.22;0.95;;;18.40;65.20;;;;;;5008565;28;20168;-53
2023/10/30 12:29:24;;;;;;;1.90;0.70;;;18.40;65.50;;;;;;5020687;28;20045;-53
2023/10/30 12:32:04;;;;;;;1.38;0.70;;;18.40;65.70;;;;;;5010654;28;20053;-54
2023/10/30 12:34:35;;;;;;;1.50;0.63;;;18.40;65.70;;;;;;5007977;28;20182;-53
2023/10/30 12:37:21;;;;;;;4.33;1.10;;;18.40;65.70;;;;;;5010629;28;20038;-52
2023/10/30 12:40:04;;;;;;;1.77;1.13;;;18.40;65.40;;;;;;5009479;28;20124;-53
2023/10/30 12:42:39;;;;;;;1.58;0.90;;;18.40;65.40;;;;;;4993348;28;20049;-52
2023/10/30 12:45:13;;;;;;;0.95;0.50;;;18.40;65.60;;;;;;5011853;28;20040;-54
2023/10/30 12:47:42;;;;;;;1.08;0.52;;;18.40;65.30;;;;;;5007992;28;20045;-53
2023/10/30 12:50:11;;;;;;;2.17;1.45;;;18.30;65.40;;;;;;5012511;28;20046;-53
2023/10/30 12:52:38;;;;;;;1.10;0.70;;;18.30;65.70;;;;;;5010002;28;20087;-54